createdAt,value
2023-02-23T00:01:42.357Z,30.58
2023-02-23T00:04:09.257Z,30.05
2023-02-23T00:06:36.599Z,30.63
2023-02-23T00:09:27.909Z,32.33
2023-02-23T00:11:56.443Z,31.45
2023-02-23T00:14:28.633Z,32.50
2023-02-23T00:17:00.017Z,30.83
2023-02-23T00:19:26.996Z,32.10
2023-02-23T00:21:54.344Z,31.10
2023-02-23T00:24:21.456Z,33.33
2023-02-23T00:26:51.153Z,32.50
2023-02-23T00:29:20.773Z,35.17
2023-02-23T00:31:48.439Z,34.53
2023-02-23T00:34:21.645Z,33.05
2023-02-23T00:36:57.068Z,34.08
2023-02-23T00:39:29.255Z,33.53
2023-02-23T00:41:56.397Z,33.33
2023-02-23T00:44:24.620Z,34.45
2023-02-23T00:46:52.480Z,34.47
2023-02-23T00:49:20.948Z,33.13
2023-02-23T00:51:48.013Z,35.13
2023-02-23T00:54:16.344Z,33.00
2023-02-23T00:56:43.228Z,32.92
2023-02-23T00:59:10.718Z,32.92
2023-02-23T01:01:41.824Z,35.15
2023-02-23T01:04:09.629Z,34.55
2023-02-23T01:06:39.676Z,36.42
2023-02-23T01:09:16.163Z,36.75
2023-02-23T01:11:42.841Z,36.50
2023-02-23T01:14:10.260Z,36.28
2023-02-23T01:16:38.790Z,36.28
2023-02-23T01:19:06.102Z,36.15
2023-02-23T01:21:35.458Z,34.13
2023-02-23T01:24:02.336Z,36.55
2023-02-23T01:26:31.940Z,34.72
2023-02-23T01:29:01.697Z,36.03
2023-02-23T01:31:29.803Z,35.70
2023-02-23T01:33:58.452Z,34.75
2023-02-23T01:36:25.714Z,36.35
2023-02-23T01:38:56.472Z,33.50
2023-02-23T01:41:28.554Z,34.33
2023-02-23T01:44:21.627Z,32.30
2023-02-23T01:46:50.180Z,33.70
2023-02-23T01:49:22.974Z,33.15
2023-02-23T01:52:03.031Z,34.45
2023-02-23T01:54:38.028Z,34.55
2023-02-23T01:57:06.586Z,33.83
2023-02-23T01:59:41.308Z,34.42
2023-02-23T02:02:08.178Z,33.33
2023-02-23T02:04:45.756Z,34.55
2023-02-23T02:07:15.672Z,33.50
2023-02-23T02:10:05.101Z,33.08
2023-02-23T02:12:31.807Z,34.65
2023-02-23T02:15:00.067Z,31.75
2023-02-23T02:17:39.108Z,32.10
2023-02-23T02:20:33.189Z,36.65
2023-02-23T02:23:31.384Z,33.58
2023-02-23T02:25:57.914Z,33.22
2023-02-23T02:28:30.751Z,36.15
2023-02-23T02:31:06.354Z,34.70
2023-02-23T02:34:00.212Z,35.45
2023-02-23T02:37:04.189Z,35.05
2023-02-23T02:39:37.041Z,32.70
2023-02-23T02:42:36.164Z,32.97
2023-02-23T02:45:22.098Z,34.28
2023-02-23T02:48:27.002Z,33.72
2023-02-23T02:50:58.273Z,33.90
2023-02-23T02:54:07.048Z,35.17
2023-02-23T02:56:40.319Z,35.17
2023-02-23T02:59:29.899Z,34.88
2023-02-23T03:02:15.903Z,35.50
2023-02-23T03:05:01.539Z,36.50
2023-02-23T03:08:07.504Z,37.00
2023-02-23T03:11:00.146Z,37.10
2023-02-23T03:14:10.547Z,38.27
2023-02-23T03:17:07.918Z,33.92
2023-02-23T03:20:00.300Z,37.00
2023-02-23T03:22:48.830Z,34.85
2023-02-23T03:26:25.149Z,37.75
2023-02-23T03:29:32.049Z,37.60
2023-02-23T03:32:37.370Z,37.90
2023-02-23T03:36:13.480Z,38.03
2023-02-23T03:39:18.813Z,36.97
2023-02-23T03:42:06.617Z,33.72
2023-02-23T03:44:56.455Z,38.50
2023-02-23T03:47:45.998Z,38.50
2023-02-23T03:50:39.927Z,39.05
2023-02-23T03:53:27.495Z,38.75
2023-02-23T03:56:16.426Z,40.05
2023-02-23T03:59:14.582Z,37.47
2023-02-23T04:02:00.047Z,39.38
2023-02-23T04:04:46.588Z,38.95
2023-02-23T04:07:36.950Z,39.50
2023-02-23T04:10:23.540Z,39.00
2023-02-23T04:13:14.541Z,38.25
2023-02-23T04:15:47.927Z,41.08
2023-02-23T04:18:17.895Z,39.72
2023-02-23T04:20:44.760Z,40.30
2023-02-23T04:23:11.534Z,41.08
2023-02-23T04:25:38.139Z,41.80
2023-02-23T04:28:04.979Z,39.50
2023-02-23T04:30:31.565Z,41.35
2023-02-23T04:32:59.187Z,41.00
2023-02-23T04:35:28.649Z,40.55
2023-02-23T04:37:55.678Z,36.58
2023-02-23T04:40:24.284Z,39.35
2023-02-23T04:42:51.053Z,41.88
2023-02-23T04:45:17.637Z,40.53
2023-02-23T04:47:44.719Z,41.00
2023-02-23T04:50:12.390Z,38.63
2023-02-23T04:52:39.089Z,40.28
2023-02-23T04:55:07.198Z,40.78
2023-02-23T04:57:34.919Z,40.65
2023-02-23T05:00:02.123Z,40.97
2023-02-23T05:02:28.846Z,40.80
2023-02-23T05:04:55.398Z,40.92
2023-02-23T05:07:21.991Z,39.00
2023-02-23T05:09:48.471Z,40.15
2023-02-23T05:14:51.875Z,37.22
2023-02-23T05:17:18.479Z,40.42
2023-02-23T05:19:44.925Z,37.60
2023-02-23T05:22:12.637Z,39.63
2023-02-23T05:24:42.638Z,39.10
2023-02-23T05:27:10.373Z,38.00
2023-02-23T05:29:37.045Z,36.08
2023-02-23T05:32:03.763Z,39.03
2023-02-23T05:34:30.428Z,37.10
2023-02-23T05:36:56.978Z,36.67
2023-02-23T05:39:23.542Z,38.92
2023-02-23T05:41:50.398Z,38.05
2023-02-23T05:44:16.854Z,36.80
2023-02-23T05:46:45.738Z,36.35
2023-02-23T05:49:12.775Z,37.85
2023-02-23T05:51:39.644Z,37.50
2023-02-23T05:54:06.392Z,36.30
2023-02-23T05:56:33.343Z,36.15
2023-02-23T05:58:59.970Z,37.95
2023-02-23T06:01:27.376Z,37.80
2023-02-23T06:03:54.256Z,37.53
2023-02-23T06:06:20.796Z,36.28
2023-02-23T06:08:47.382Z,34.83
2023-02-23T06:11:14.034Z,37.05
2023-02-23T06:13:41.223Z,34.25
2023-02-23T06:16:08.632Z,32.47
2023-02-23T06:18:35.242Z,37.25
2023-02-23T06:21:03.935Z,37.08
2023-02-23T06:23:32.036Z,36.08
2023-02-23T06:26:00.093Z,37.55
2023-02-23T06:28:27.427Z,36.47
2023-02-23T06:30:54.734Z,35.80
2023-02-23T06:33:22.322Z,35.20
2023-02-23T06:35:49.134Z,34.83
2023-02-23T06:38:15.649Z,36.60
2023-02-23T06:40:43.150Z,39.78
2023-02-23T06:43:09.722Z,38.80
2023-02-23T06:45:37.968Z,37.45
2023-02-23T06:48:05.157Z,40.53
2023-02-23T06:50:31.758Z,40.25
2023-02-23T06:52:58.950Z,41.00
2023-02-23T06:55:25.661Z,38.92
2023-02-23T06:57:54.315Z,39.70
2023-02-23T07:00:21.813Z,36.92
2023-02-23T07:02:48.561Z,37.33
2023-02-23T07:05:15.168Z,39.70
2023-02-23T07:07:41.754Z,37.83
2023-02-23T07:10:09.023Z,39.05
2023-02-23T07:12:35.483Z,40.20
2023-02-23T07:15:02.023Z,38.35
2023-02-23T07:17:28.467Z,38.80
2023-02-23T07:19:54.978Z,37.60
2023-02-23T07:22:22.504Z,36.20
2023-02-23T07:24:49.162Z,36.30
2023-02-23T07:27:15.681Z,40.63
2023-02-23T07:29:42.194Z,39.78
2023-02-23T07:32:08.945Z,40.63
2023-02-23T07:34:35.531Z,42.83
2023-02-23T07:37:01.989Z,43.50
2023-02-23T07:39:28.573Z,41.55
2023-02-23T07:41:55.115Z,39.83
2023-02-23T07:44:21.757Z,42.80
2023-02-23T07:46:48.454Z,37.85
2023-02-23T07:49:15.019Z,36.38
2023-02-23T07:51:42.087Z,36.55
2023-02-23T07:54:08.640Z,39.15
2023-02-23T07:56:35.585Z,40.95
2023-02-23T07:59:02.743Z,41.83
2023-02-23T08:01:29.561Z,40.50
2023-02-23T08:03:56.041Z,41.53
2023-02-23T08:06:22.511Z,42.20
2023-02-23T08:08:49.160Z,39.13
2023-02-23T08:11:15.900Z,42.20
2023-02-23T08:13:42.588Z,41.08
2023-02-23T08:16:09.214Z,41.00
2023-02-23T08:18:35.773Z,41.58
2023-02-23T08:21:04.095Z,38.83
2023-02-23T08:23:32.413Z,41.15
2023-02-23T08:25:59.713Z,40.47
2023-02-23T08:28:27.778Z,40.47
2023-02-23T08:30:54.746Z,37.95
2023-02-23T08:33:21.965Z,40.03
2023-02-23T08:35:48.543Z,39.05
2023-02-23T08:38:16.489Z,39.00
2023-02-23T08:40:43.432Z,39.58
2023-02-23T08:43:10.255Z,37.70
2023-02-23T08:45:39.666Z,39.20
2023-02-23T08:48:08.835Z,38.83
2023-02-23T08:50:35.380Z,39.00
2023-02-23T08:53:01.898Z,37.13
2023-02-23T08:55:28.443Z,38.40
2023-02-23T08:57:54.958Z,38.67
2023-02-23T09:00:21.945Z,39.63
2023-02-23T09:02:48.500Z,37.97
2023-02-23T09:05:15.773Z,38.60
2023-02-23T09:07:45.128Z,37.67
2023-02-23T09:10:16.909Z,39.25
2023-02-23T09:12:43.486Z,37.00
2023-02-23T09:15:10.574Z,38.28
2023-02-23T09:17:37.782Z,37.78
2023-02-23T09:20:05.940Z,40.72
2023-02-23T09:22:32.703Z,38.85
2023-02-23T09:24:59.281Z,40.00
2023-02-23T09:27:25.787Z,38.90
2023-02-23T09:29:52.255Z,38.60
2023-02-23T09:32:18.837Z,37.45
2023-02-23T09:34:45.462Z,36.45
2023-02-23T09:37:11.923Z,36.47
2023-02-23T09:39:39.166Z,37.50
2023-02-23T09:43:01.374Z,35.78
2023-02-23T09:45:49.391Z,33.70
2023-02-23T09:48:19.758Z,34.28
2023-02-23T09:50:53.017Z,32.15
2023-02-23T09:53:33.857Z,33.42
2023-02-23T09:56:03.395Z,32.30
2023-02-23T09:58:33.985Z,32.40
2023-02-23T10:01:19.511Z,33.70
2023-02-23T10:03:54.283Z,32.70
2023-02-23T10:06:21.889Z,30.80
2023-02-23T10:09:30.373Z,31.17
2023-02-23T10:12:11.367Z,27.95
2023-02-23T10:15:06.744Z,27.90
2023-02-23T10:17:44.265Z,27.77
2023-02-23T10:20:19.661Z,27.13
2023-02-23T10:22:49.384Z,26.48
2023-02-23T10:25:26.787Z,24.55
2023-02-23T10:27:55.825Z,24.30
2023-02-23T10:30:28.987Z,24.75
2023-02-23T10:33:17.098Z,25.85
2023-02-23T10:35:44.956Z,24.00
2023-02-23T10:38:18.926Z,24.30
2023-02-23T10:40:53.666Z,24.33
2023-02-23T10:43:20.236Z,23.55
2023-02-23T10:45:52.117Z,23.17
2023-02-23T10:48:30.840Z,24.00
2023-02-23T10:51:02.968Z,23.52
2023-02-23T10:53:39.179Z,23.40
2023-02-23T10:56:10.996Z,23.27
2023-02-23T10:58:46.522Z,22.65
2023-02-23T11:01:15.738Z,21.90
2023-02-23T11:04:05.403Z,22.15
2023-02-23T11:06:39.598Z,21.42
2023-02-23T11:09:44.850Z,20.55
2023-02-23T11:15:50.821Z,18.70
2023-02-23T11:18:23.520Z,18.33
2023-02-23T11:20:51.546Z,18.17
2023-02-23T11:23:29.295Z,18.10
2023-02-23T11:26:02.106Z,18.85
2023-02-23T11:28:43.079Z,19.27
2023-02-23T11:31:15.798Z,19.48
2023-02-23T11:33:42.600Z,18.10
2023-02-23T11:36:25.672Z,19.35
2023-02-23T11:39:06.302Z,18.15
2023-02-23T11:41:35.278Z,18.17
2023-02-23T11:44:06.036Z,17.48
2023-02-23T11:46:36.777Z,16.77
2023-02-23T11:49:07.049Z,15.02
2023-02-23T11:51:39.745Z,15.00
2023-02-23T11:54:10.368Z,13.50
2023-02-23T11:56:36.977Z,15.00
2023-02-23T11:59:08.362Z,14.75
2023-02-23T12:01:41.675Z,14.05
2023-02-23T12:04:10.144Z,13.20
2023-02-23T12:06:41.701Z,13.57
2023-02-23T12:09:13.051Z,14.77
2023-02-23T12:11:45.310Z,13.70
2023-02-23T12:16:51.151Z,12.10
2023-02-23T12:19:26.607Z,13.05
2023-02-23T12:22:02.478Z,13.23
2023-02-23T12:24:50.288Z,13.05
2023-02-23T12:27:41.663Z,11.50
2023-02-23T12:30:27.529Z,13.43
2023-02-23T12:33:02.188Z,13.93
2023-02-23T12:35:40.737Z,12.65
2023-02-23T12:38:13.094Z,14.70
2023-02-23T12:40:44.265Z,13.60
2023-02-23T12:43:19.669Z,13.80
2023-02-23T12:45:52.719Z,14.23
2023-02-23T12:48:48.380Z,14.25
2023-02-23T12:51:34.225Z,13.98
2023-02-23T12:54:01.326Z,13.52
2023-02-23T12:56:46.178Z,14.45
2023-02-23T12:59:40.107Z,14.50
2023-02-23T13:02:18.482Z,13.15
2023-02-23T13:05:05.138Z,13.90
2023-02-23T13:07:44.870Z,13.05
2023-02-23T13:10:31.570Z,14.00
2023-02-23T13:13:23.282Z,14.13
2023-02-23T13:16:00.623Z,13.82
2023-02-23T13:19:06.688Z,14.40
2023-02-23T13:21:54.157Z,14.52
2023-02-23T13:24:25.477Z,15.20
2023-02-23T13:27:17.225Z,15.93
2023-02-23T13:29:46.324Z,15.05
2023-02-23T13:32:19.453Z,16.23
2023-02-23T13:34:52.618Z,16.77
2023-02-23T13:39:59.795Z,14.13
2023-02-23T13:42:34.826Z,14.43
2023-02-23T13:45:20.328Z,16.33
2023-02-23T13:48:50.484Z,15.98
2023-02-23T13:51:37.812Z,15.23
2023-02-23T13:54:23.055Z,17.60
2023-02-23T13:56:54.700Z,18.85
2023-02-23T13:59:25.897Z,17.83
2023-02-23T14:01:54.502Z,18.70
2023-02-23T14:04:24.287Z,20.10
2023-02-23T14:07:05.881Z,18.27
2023-02-23T14:09:41.448Z,18.75
2023-02-23T14:12:07.800Z,18.50
2023-02-23T14:14:34.251Z,19.65
2023-02-23T14:17:16.106Z,18.58
2023-02-23T14:20:13.402Z,18.92
2023-02-23T14:23:14.881Z,18.13
2023-02-23T14:25:44.908Z,18.27
2023-02-23T14:28:35.297Z,18.40
2023-02-23T14:31:10.931Z,18.52
2023-02-23T14:33:48.380Z,17.40
2023-02-23T14:36:24.014Z,18.52
2023-02-23T14:38:56.748Z,18.25
2023-02-23T14:41:28.196Z,16.45
2023-02-23T14:44:34.273Z,16.33
2023-02-23T14:47:07.276Z,16.13
2023-02-23T14:52:09.631Z,13.85
2023-02-23T14:54:39.064Z,14.73
2023-02-23T14:57:19.349Z,15.02
2023-02-23T14:59:52.150Z,15.43
2023-02-23T15:02:24.939Z,14.43
2023-02-23T15:04:52.231Z,13.90
2023-02-23T15:07:28.015Z,13.35
2023-02-23T15:09:57.146Z,13.98
2023-02-23T15:12:29.615Z,13.52
2023-02-23T15:14:59.092Z,13.60
2023-02-23T15:17:31.743Z,13.63
2023-02-23T15:20:15.769Z,13.88
2023-02-23T15:22:46.918Z,13.80
2023-02-23T15:25:20.183Z,13.00
2023-02-23T15:27:48.390Z,13.43
2023-02-23T15:30:21.454Z,12.75
2023-02-23T15:35:15.224Z,11.43
2023-02-23T15:37:46.638Z,13.68
2023-02-23T15:40:18.894Z,13.15
2023-02-23T15:42:51.474Z,13.10
2023-02-23T15:45:46.782Z,13.98
2023-02-23T15:48:18.392Z,11.95
2023-02-23T15:50:50.574Z,13.43
2023-02-23T15:53:28.926Z,14.07
2023-02-23T15:56:00.894Z,14.43
2023-02-23T15:58:30.824Z,13.52
2023-02-23T16:01:09.604Z,13.80
2023-02-23T16:03:44.079Z,14.60
2023-02-23T16:06:26.176Z,14.88
2023-02-23T16:09:02.295Z,14.68
2023-02-23T16:11:35.947Z,14.40
2023-02-23T16:14:05.715Z,14.82
2023-02-23T16:16:35.446Z,14.77
2023-02-23T16:19:04.638Z,15.98
2023-02-23T16:21:32.289Z,14.95
2023-02-23T16:24:05.911Z,15.32
2023-02-23T16:26:46.757Z,14.82
2023-02-23T16:29:28.114Z,15.02
2023-02-23T16:32:03.543Z,15.32
2023-02-23T16:34:48.622Z,14.57
2023-02-23T16:37:25.343Z,15.98
2023-02-23T16:39:52.621Z,16.00
2023-02-23T16:42:34.767Z,14.82
2023-02-23T16:45:02.045Z,14.75
2023-02-23T16:47:36.597Z,16.83
2023-02-23T16:50:30.385Z,16.27
2023-02-23T16:52:56.937Z,15.43
2023-02-23T16:55:28.830Z,17.27
2023-02-23T16:58:01.772Z,16.30
2023-02-23T17:00:33.201Z,16.15
2023-02-23T17:03:05.611Z,16.27
2023-02-23T17:05:33.277Z,16.98
2023-02-23T17:07:59.878Z,17.63
2023-02-23T17:10:31.037Z,17.50
2023-02-23T17:15:48.130Z,18.33
2023-02-23T17:18:51.905Z,17.35
2023-02-23T17:23:52.188Z,15.70
2023-02-23T17:26:53.252Z,17.60
2023-02-23T17:29:26.980Z,17.73
2023-02-23T17:32:49.171Z,19.20
2023-02-23T17:46:48.901Z,19.05
2023-02-23T17:49:15.532Z,17.17
2023-02-23T17:51:42.101Z,18.67
2023-02-23T17:54:08.834Z,18.65
2023-02-23T17:56:35.649Z,17.08
2023-02-23T17:59:02.199Z,13.50
2023-02-23T18:01:28.889Z,10.82
2023-02-23T18:03:58.582Z,9.68
2023-02-23T18:06:25.668Z,8.77
2023-02-23T18:08:52.127Z,7.22
2023-02-23T18:11:19.782Z,6.30
2023-02-23T18:13:48.060Z,7.15
2023-02-23T18:16:16.063Z,5.22
2023-02-23T18:18:46.472Z,4.47
2023-02-23T18:21:19.092Z,4.13
2023-02-23T18:23:45.834Z,3.38
2023-02-23T18:26:18.173Z,3.75
2023-02-23T18:28:45.876Z,3.50
2023-02-23T18:31:21.920Z,3.45
2023-02-23T18:33:55.246Z,4.32
2023-02-23T18:38:57.619Z,3.47
2023-02-23T18:41:24.788Z,4.93
2023-02-23T18:43:51.791Z,3.30
2023-02-23T18:46:18.777Z,5.05
2023-02-23T18:48:49.328Z,4.32
2023-02-23T18:51:15.807Z,3.47
2023-02-23T18:53:44.426Z,4.15
2023-02-23T18:56:13.761Z,3.85
2023-02-23T18:58:40.653Z,3.45
2023-02-23T19:01:20.887Z,4.18
2023-02-23T19:03:48.731Z,3.38
2023-02-23T19:06:16.179Z,4.25
2023-02-23T19:08:43.779Z,3.42
2023-02-23T19:11:11.586Z,3.92
2023-02-23T19:13:38.579Z,4.05
2023-02-23T19:16:07.197Z,4.38
2023-02-23T19:18:35.737Z,3.97
2023-02-23T19:21:03.304Z,4.75
2023-02-23T19:23:30.724Z,3.78
2023-02-23T19:25:58.913Z,4.10
2023-02-23T19:28:27.325Z,4.93
2023-02-23T19:31:08.313Z,3.67
2023-02-23T19:33:38.099Z,4.35
2023-02-23T19:36:06.589Z,4.78
2023-02-23T19:38:33.489Z,4.10
2023-02-23T19:41:00.117Z,4.43
2023-02-23T19:43:26.738Z,4.40
2023-02-23T19:45:54.593Z,3.60
2023-02-23T19:48:21.879Z,4.30
2023-02-23T19:50:49.500Z,3.88
2023-02-23T19:53:16.410Z,4.35
2023-02-23T19:55:43.389Z,3.60
2023-02-23T19:58:10.007Z,4.72
2023-02-23T20:00:36.575Z,4.57
2023-02-23T20:03:06.546Z,4.80
2023-02-23T20:05:42.590Z,4.32
2023-02-23T20:08:09.609Z,4.07
2023-02-23T20:10:39.014Z,4.50
2023-02-23T20:13:05.533Z,4.65
2023-02-23T20:15:32.037Z,4.10
2023-02-23T20:17:58.576Z,3.78
2023-02-23T20:20:25.938Z,4.40
2023-02-23T20:22:53.299Z,4.47
2023-02-23T20:25:21.151Z,4.00
2023-02-23T20:27:48.864Z,5.20
2023-02-23T20:30:15.555Z,3.78
2023-02-23T20:32:42.403Z,4.45
2023-02-23T20:35:11.435Z,3.92
2023-02-23T20:37:37.900Z,3.80
2023-02-23T20:40:15.757Z,3.60
2023-02-23T20:42:45.102Z,3.45
2023-02-23T20:45:14.277Z,3.58
2023-02-23T20:47:45.923Z,3.78
2023-02-23T20:50:15.586Z,3.80
2023-02-23T20:52:42.564Z,3.22
2023-02-23T20:55:10.113Z,3.35
2023-02-23T20:57:36.945Z,3.75
2023-02-23T21:00:09.483Z,3.33
2023-02-23T21:02:36.832Z,3.13
2023-02-23T21:05:04.081Z,3.50
2023-02-23T21:07:31.054Z,3.45
2023-02-23T21:10:00.574Z,3.63
2023-02-23T21:12:27.972Z,4.97
2023-02-23T21:14:54.529Z,3.63
2023-02-23T21:17:21.067Z,3.55
2023-02-23T21:19:47.602Z,3.30
2023-02-23T21:22:16.393Z,3.20
2023-02-23T21:24:43.928Z,3.53
2023-02-23T21:27:13.032Z,4.13
2023-02-23T21:29:40.572Z,4.40
2023-02-23T21:32:10.253Z,3.97
2023-02-23T21:34:36.835Z,3.60
2023-02-23T21:37:03.337Z,4.03
2023-02-23T21:39:30.138Z,4.28
2023-02-23T21:41:57.040Z,3.50
2023-02-23T21:44:24.338Z,3.47
2023-02-23T21:46:51.689Z,4.13
2023-02-23T21:49:19.450Z,3.42
2023-02-23T21:51:45.923Z,2.80
2023-02-23T21:54:12.482Z,3.33
2023-02-23T21:56:39.012Z,3.40
2023-02-23T21:59:08.512Z,4.03
2023-02-23T22:01:37.793Z,4.22
2023-02-23T22:04:06.319Z,3.40
2023-02-23T22:06:38.956Z,4.03
2023-02-23T22:09:06.919Z,3.88
2023-02-23T22:11:36.342Z,4.15
2023-02-23T22:14:06.414Z,3.80
2023-02-23T22:16:36.043Z,4.68
2023-02-23T22:19:04.297Z,4.35
2023-02-23T22:21:33.457Z,4.60
2023-02-23T22:24:01.644Z,4.03
2023-02-23T22:26:30.242Z,3.72
2023-02-23T22:28:56.742Z,3.90
2023-02-23T22:31:23.836Z,3.72
2023-02-23T22:33:50.629Z,3.30
2023-02-23T22:36:18.560Z,4.18
2023-02-23T22:38:45.939Z,4.68
2023-02-23T22:41:13.183Z,3.33
2023-02-23T22:43:41.461Z,4.10
2023-02-23T22:46:08.790Z,3.92
2023-02-23T22:48:36.118Z,4.15
2023-02-23T22:51:02.988Z,3.38
2023-02-23T22:53:29.836Z,3.45
2023-02-23T22:55:57.128Z,3.78
2023-02-23T22:58:26.430Z,3.47
2023-02-23T23:01:14.252Z,3.40
2023-02-23T23:03:45.785Z,3.40
2023-02-23T23:06:21.829Z,3.65
2023-02-23T23:08:51.727Z,3.95
2023-02-23T23:11:21.446Z,3.13
2023-02-23T23:13:49.729Z,3.15
2023-02-23T23:16:31.427Z,3.22
2023-02-23T23:19:02.689Z,3.00
2023-02-23T23:21:32.017Z,4.03
2023-02-23T23:24:01.524Z,3.38
2023-02-23T23:26:29.069Z,3.00
2023-02-23T23:29:00.624Z,3.45
2023-02-23T23:31:29.365Z,3.55
2023-02-23T23:34:00.141Z,3.13
2023-02-23T23:36:29.994Z,4.30
2023-02-23T23:38:56.790Z,3.20
2023-02-23T23:41:25.056Z,2.58
2023-02-23T23:43:56.792Z,3.20
2023-02-23T23:46:24.698Z,3.33
2023-02-23T23:49:00.115Z,3.30
2023-02-23T23:51:32.253Z,3.45
2023-02-23T23:54:00.998Z,3.65
2023-02-23T23:56:33.876Z,3.25
2023-02-23T23:59:00.742Z,2.92
